Flight Track Log - Related Links

Times and Time Zones

All times are in EDT time to prevent confusion due to time zone crossing. See the OPT429 flight status page for this flight to view local times or setup timezone preferences in your user account.

Time Position Orientation Groundspeed Altitude Reporting Facility
EDT Latitude Longitude Course Direction KTS MPH feet Rate Location/Type
Fri 10:32:06 AM 39.2000 -76.7333 322° Northwest 205 236 3,600  Level Potomac TRACON
Fri 10:33:06 AM 39.2167 -76.8167 284° West 265 305 6,600 3,350 Climbing Potomac TRACON
Fri 10:34:06 AM 39.2167 -76.9167 270° West 277 319 10,300 3,161 Climbing Potomac TRACON
Fri 10:34:39 AM 39.2142 -76.9578 266° West 290 334 11,500 2,170 Climbing Washington Center
Fri 10:35:40 AM 39.2192 -77.0703 273° West 325 374 13,700 2,132 Climbing Washington Center
Fri 10:36:40 AM 39.2636 -77.1731 299° West 339 390 15,800 1,150 Climbing Washington Center
Fri 10:37:00 AM 39.2909 -77.2241 322° Northwest  Level FlightAware Approximate
Fri 10:37:40 AM 39.3119 -77.2894 298° West 380 437 16,000  Level Washington Center
Fri 10:38:38 AM 39.3561 -77.4114 295° West 380 437 16,000 403 Level Washington Center
Fri 10:39:39 AM 39.4064 -77.5308 299° West 406 467 16,800 496 Climbing Washington Center
Fri 10:40:39 AM 39.4544 -77.6531 297° West 401 461 17,000 99 Climbing Washington Center
Fri 10:41:40 AM 39.5022 -77.7728 297° West 389 448 17,000 446 Level Washington Center
Fri 10:42:40 AM 39.5458 -77.8953 295° West 376 433 17,900 1,239 Climbing Washington Center
Fri 10:43:12 AM 39.5678 -77.9617 293° West 368 423 18,900 1,660 Climbing Cleveland Center
Fri 10:44:14 AM 39.6044 -78.0853 291° West 367 422 20,500 1,645 Climbing Cleveland Center
Fri 10:45:16 AM 39.6497 -78.2353 291° West 369 425 22,300 1,645 Climbing Cleveland Center
Fri 10:46:18 AM 39.6861 -78.3631 290° West 372 428 23,900 823 Climbing Cleveland Center
Fri 10:47:20 AM 39.7247 -78.4944 291° West 388 447 24,000 48 Climbing Cleveland Center
Fri 10:48:22 AM 39.7669 -78.6350 291° West 414 476 24,000  Level Cleveland Center
Fri 10:49:25 AM 39.8103 -78.7828 291° West 422 486 24,000  Level Cleveland Center
Fri 10:50:27 AM 39.8508 -78.9206 291° West 412 474 24,000 484 Level Cleveland Center
Fri 10:51:29 AM 39.8944 -79.0694 291° West 410 472 25,000 1,210 Climbing Cleveland Center
Fri 10:52:31 AM 39.9325 -79.2053 290° West 404 465 26,500 1,452 Climbing Cleveland Center
Fri 10:53:33 AM 39.9714 -79.3378 291° West 396 456 28,000 1,452 Climbing Cleveland Center
Fri 10:54:35 AM 40.0086 -79.4678 291° West 386 444 29,500 1,597 Climbing Cleveland Center
Fri 10:55:37 AM 40.0533 -79.6292 290° West 388 447 31,300 1,597 Climbing Cleveland Center
Fri 10:56:39 AM 40.0917 -79.7631 291° West 392 451 32,800 1,306 Climbing Cleveland Center
Fri 10:57:41 AM 40.1297 -79.8986 290° West 393 452 34,000 581 Climbing Cleveland Center
Fri 10:58:43 AM 40.1686 -80.0400 290° West 406 467 34,000  Level Cleveland Center
Fri 10:59:45 AM 40.2081 -80.1831 290° West 410 472 34,000  Level Cleveland Center
Fri 11:00:48 AM 40.2481 -80.3250 290° West 410 472 34,000  Level Cleveland Center
Fri 11:01:51 AM 40.2861 -80.4642 290° West 404 465 34,000  Level Cleveland Center
Fri 11:02:52 AM 40.3314 -80.6297 290° West 403 464 34,000  Level Cleveland Center
Fri 11:03:54 AM 40.3683 -80.7678 289° West 403 464 34,000 290 Level Cleveland Center
Fri 11:04:56 AM 40.4056 -80.9044 290° West 402 463 34,600 1,016 Climbing Cleveland Center
Fri 11:05:58 AM 40.4428 -81.0433 289° West 402 463 36,100 1,500 Climbing Cleveland Center
Fri 11:07:00 AM 40.4792 -81.1792 289° West 400 460 37,700 1,548 Climbing Cleveland Center
Fri 11:08:02 AM 40.5144 -81.3108 289° West 389 448 39,300 1,500 Climbing Cleveland Center
Fri 11:09:04 AM 40.5536 -81.4628 289° West 383 441 40,800 1,258 Climbing Cleveland Center
Fri 11:10:06 AM 40.5889 -81.5925 290° West 374 430 41,900 1,065 Climbing Cleveland Center
Fri 11:11:08 AM 40.6231 -81.7239 289° West 374 430 43,000 532 Climbing Cleveland Center
Fri 11:12:10 AM 40.6569 -81.8575 289° West 377 434 43,000  Level Cleveland Center
Fri 11:13:12 AM 40.6933 -81.9983 289° West 395 455 43,000  Level Cleveland Center
Fri 11:14:14 AM 40.7297 -82.1383 289° West 398 458 43,000  Level Cleveland Center
Fri 11:15:16 AM 40.7619 -82.2692 288° West 377 434 43,000  Level Cleveland Center
Fri 11:16:18 AM 40.8011 -82.4167 289° West 366 421 43,000  Level Cleveland Center
Fri 11:17:21 AM 40.8322 -82.5428 288° West 362 417 43,000  Level Cleveland Center
Fri 11:18:22 AM 40.8636 -82.6697 288° West 361 415 43,000  Level Cleveland Center
Fri 11:19:24 AM 40.8953 -82.7958 288° West 360 414 43,000  Level Cleveland Center
Fri 11:20:26 AM 40.9269 -82.9206 289° West 357 411 43,000  Level Cleveland Center
Fri 11:21:28 AM 40.9569 -83.0456 288° West 356 410 43,000  Level Cleveland Center
Fri 11:22:30 AM 40.9867 -83.1633 289° West 355 409 43,000  Level Cleveland Center
Fri 11:23:32 AM 41.0236 -83.3100 289° West 354 407 43,000  Level Cleveland Center
Fri 11:24:34 AM 41.0531 -83.4319 288° West 353 406 43,000  Level Cleveland Center
Fri 11:25:36 AM 41.0819 -83.5550 287° West 353 406 43,000  Level Cleveland Center
Fri 11:26:38 AM 41.1111 -83.6767 288° West 348 400 43,000  Level Cleveland Center
Fri 11:27:40 AM 41.1403 -83.7992 288° West 348 400 43,000 -339 Level Cleveland Center
Fri 11:28:42 AM 41.1708 -83.9264 288° West 348 400 42,300 -871 Descending Cleveland Center
Fri 11:29:44 AM 41.1986 -84.0450 287° West 343 395 41,200 -1,027 Descending Cleveland Center
Fri 11:30:33 AM 41.2206 -84.1394 287° West 341 392 40,400 -1,081 Descending Cleveland Center
Fri 11:31:35 AM 41.2533 -84.2786 287° West 331 381 39,200 -1,065 Descending Cleveland Center
Fri 11:32:37 AM 41.2800 -84.3931 287° West 329 379 38,200 -1,016 Descending Cleveland Center
Fri 11:33:39 AM 41.3064 -84.5067 287° West 328 377 37,100 -1,016 Descending Cleveland Center
Fri 11:34:41 AM 41.3328 -84.6222 287° West 327 376 36,100 -968 Descending Cleveland Center
Fri 11:35:43 AM 41.3592 -84.7386 287° West 328 377 35,100 -1,008 Descending Cleveland Center
Fri 11:36:40 AM 41.3858 -84.8517 287° West 327 376 34,100 -1,059 Descending Chicago Center
Fri 11:37:42 AM 41.4117 -84.9658 287° West 323 372 33,000 -1,016 Descending Chicago Center
Fri 11:38:44 AM 41.4369 -85.0806 286° West 322 371 32,000 -1,355 Descending Chicago Center
Fri 11:39:46 AM 41.4636 -85.1967 287° West 323 372 30,200 -1,935 Descending Chicago Center
Fri 11:40:48 AM 41.4897 -85.3236 285° West 344 396 28,000 -2,468 Descending Chicago Center
Fri 11:41:50 AM 41.5189 -85.4553 287° West 357 411 25,100 -3,242 Descending Chicago Center
Fri 11:42:52 AM 41.5533 -85.6017 287° West 337 388 21,300 -3,435 Descending Chicago Center
Fri 11:43:54 AM 41.5789 -85.7228 286° West 336 387 18,000 -3,073 Descending Chicago Center
Fri 11:44:55 AM 41.6044 -85.8389 286° West 325 374 15,000 -3,073 Descending Chicago Center
Fri 11:45:57 AM 41.6036 -85.9578 270° West 320 368 11,700 -2,806 Descending Chicago Center
Fri 11:46:59 AM 41.5850 -86.0689 257° West 310 357 9,200 -1,597 Descending Chicago Center
Fri 11:48:01 AM 41.5686 -86.1664 257° West 273 314 8,400 -871 Descending Chicago Center
Fri 11:49:03 AM 41.5653 -86.2619 267° West 259 298 7,400 -1,065 Descending Chicago Center
Fri 11:50:05 AM 41.5786 -86.3753 279° West 258 297 6,200 -1,065 Descending Chicago Center
Fri 11:51:07 AM 41.6108 -86.4489 300° West 230 265 5,200 -1,016 Descending Chicago Center
Fri 11:52:09 AM 41.6694 -86.4589 353° North 221 254 4,100 -1,210 Descending Chicago Center
Fri 11:53:11 AM 41.7083 -86.4267 32° Northeast 227 261 2,700 -1,016 Descending Chicago Center
Fri 11:54:13 AM 41.7025 -86.3800 99° East 163 188 2,000 -629 Descending Chicago Center
Fri 11:55:15 AM 41.7047 -86.3306 87° East 141 162 1,400 -581 Descending Chicago Center

Login

Don't have an account? Register now (free) for customized features, flight alerts, and more!